sensor_id;sensor_type;location;lat;lon;timestamp;P1;durP1;ratioP1;P2;durP2;ratioP2
52158;SDS011;38145;53.182;6.284;2023-04-15T00:00:19;13.25;;;6.45;;
52158;SDS011;38145;53.182;6.284;2023-04-15T00:02:46;12.02;;;6.47;;
52158;SDS011;38145;53.182;6.284;2023-04-15T00:05:12;12.10;;;7.40;;
52158;SDS011;38145;53.182;6.284;2023-04-15T00:07:39;9.65;;;6.57;;
52158;SDS011;38145;53.182;6.284;2023-04-15T00:10:06;10.15;;;6.65;;
52158;SDS011;38145;53.182;6.284;2023-04-15T00:12:33;10.38;;;6.38;;
52158;SDS011;38145;53.182;6.284;2023-04-15T00:15:02;15.65;;;7.10;;
52158;SDS011;38145;53.182;6.284;2023-04-15T00:17:28;11.70;;;7.05;;
52158;SDS011;38145;53.182;6.284;2023-04-15T00:19:57;15.10;;;7.45;;
52158;SDS011;38145;53.182;6.284;2023-04-15T00:22:24;15.50;;;7.13;;
52158;SDS011;38145;53.182;6.284;2023-04-15T00:24:52;10.30;;;7.28;;
52158;SDS011;38145;53.182;6.284;2023-04-15T00:27:24;13.23;;;7.50;;
52158;SDS011;38145;53.182;6.284;2023-04-15T00:29:53;10.70;;;7.18;;
52158;SDS011;38145;53.182;6.284;2023-04-15T00:32:21;11.32;;;6.50;;
52158;SDS011;38145;53.182;6.284;2023-04-15T00:34:49;13.15;;;6.72;;
52158;SDS011;38145;53.182;6.284;2023-04-15T00:37:16;16.80;;;8.18;;
52158;SDS011;38145;53.182;6.284;2023-04-15T00:39:43;11.82;;;7.70;;
52158;SDS011;38145;53.182;6.284;2023-04-15T00:42:12;14.40;;;6.97;;
52158;SDS011;38145;53.182;6.284;2023-04-15T00:44:38;14.30;;;7.72;;
52158;SDS011;38145;53.182;6.284;2023-04-15T00:47:05;13.63;;;7.47;;
52158;SDS011;38145;53.182;6.284;2023-04-15T00:49:32;14.43;;;7.40;;
52158;SDS011;38145;53.182;6.284;2023-04-15T00:52:04;13.95;;;8.43;;
52158;SDS011;38145;53.182;6.284;2023-04-15T00:54:30;13.07;;;7.50;;
52158;SDS011;38145;53.182;6.284;2023-04-15T00:56:57;12.75;;;8.25;;
52158;SDS011;38145;53.182;6.284;2023-04-15T00:59:24;16.55;;;7.85;;
52158;SDS011;38145;53.182;6.284;2023-04-15T01:01:53;14.23;;;8.32;;
52158;SDS011;38145;53.182;6.284;2023-04-15T01:04:22;11.73;;;7.80;;
52158;SDS011;38145;53.182;6.284;2023-04-15T01:06:51;13.43;;;7.97;;
52158;SDS011;38145;53.182;6.284;2023-04-15T01:09:24;17.40;;;8.18;;
52158;SDS011;38145;53.182;6.284;2023-04-15T01:11:51;14.32;;;8.38;;
52158;SDS011;38145;53.182;6.284;2023-04-15T01:14:18;12.55;;;8.98;;
52158;SDS011;38145;53.182;6.284;2023-04-15T01:16:44;13.63;;;8.57;;
52158;SDS011;38145;53.182;6.284;2023-04-15T01:19:11;16.17;;;8.75;;
52158;SDS011;38145;53.182;6.284;2023-04-15T01:21:42;16.95;;;8.15;;
52158;SDS011;38145;53.182;6.284;2023-04-15T01:24:09;16.58;;;9.35;;
52158;SDS011;38145;53.182;6.284;2023-04-15T01:26:38;14.77;;;8.10;;
52158;SDS011;38145;53.182;6.284;2023-04-15T01:29:05;13.10;;;8.32;;
52158;SDS011;38145;53.182;6.284;2023-04-15T01:31:32;16.08;;;9.10;;
52158;SDS011;38145;53.182;6.284;2023-04-15T01:33:58;15.00;;;9.75;;
52158;SDS011;38145;53.182;6.284;2023-04-15T01:36:25;12.60;;;9.30;;
52158;SDS011;38145;53.182;6.284;2023-04-15T01:38:52;14.30;;;8.40;;
52158;SDS011;38145;53.182;6.284;2023-04-15T01:41:24;17.95;;;8.45;;
52158;SDS011;38145;53.182;6.284;2023-04-15T01:43:51;15.35;;;8.73;;
52158;SDS011;38145;53.182;6.284;2023-04-15T01:46:22;14.07;;;9.40;;
52158;SDS011;38145;53.182;6.284;2023-04-15T01:48:48;14.38;;;9.43;;
52158;SDS011;38145;53.182;6.284;2023-04-15T01:51:16;16.17;;;9.82;;
52158;SDS011;38145;53.182;6.284;2023-04-15T01:53:48;16.77;;;9.75;;
52158;SDS011;38145;53.182;6.284;2023-04-15T01:56:15;16.65;;;9.50;;
52158;SDS011;38145;53.182;6.284;2023-04-15T01:58:43;13.50;;;9.15;;
52158;SDS011;38145;53.182;6.284;2023-04-15T02:01:13;11.40;;;9.30;;
52158;SDS011;38145;53.182;6.284;2023-04-15T02:03:39;15.82;;;10.48;;
52158;SDS011;38145;53.182;6.284;2023-04-15T02:06:10;14.93;;;10.02;;
52158;SDS011;38145;53.182;6.284;2023-04-15T02:08:36;14.80;;;9.13;;
52158;SDS011;38145;53.182;6.284;2023-04-15T02:11:03;14.27;;;9.27;;
52158;SDS011;38145;53.182;6.284;2023-04-15T02:13:29;16.80;;;9.30;;
52158;SDS011;38145;53.182;6.284;2023-04-15T02:16:00;13.40;;;9.73;;
52158;SDS011;38145;53.182;6.284;2023-04-15T02:18:27;15.43;;;9.63;;
52158;SDS011;38145;53.182;6.284;2023-04-15T02:20:54;16.65;;;10.05;;
52158;SDS011;38145;53.182;6.284;2023-04-15T02:23:22;14.95;;;9.93;;
52158;SDS011;38145;53.182;6.284;2023-04-15T02:25:50;15.30;;;10.40;;
52158;SDS011;38145;53.182;6.284;2023-04-15T02:28:19;13.25;;;9.73;;
52158;SDS011;38145;53.182;6.284;2023-04-15T02:30:48;15.52;;;10.57;;
52158;SDS011;38145;53.182;6.284;2023-04-15T02:33:20;14.18;;;10.55;;
52158;SDS011;38145;53.182;6.284;2023-04-15T02:35:47;18.27;;;11.45;;
52158;SDS011;38145;53.182;6.284;2023-04-15T02:38:14;28.23;;;12.02;;
52158;SDS011;38145;53.182;6.284;2023-04-15T02:40:42;17.63;;;11.15;;
52158;SDS011;38145;53.182;6.284;2023-04-15T02:43:09;19.10;;;12.25;;
52158;SDS011;38145;53.182;6.284;2023-04-15T02:45:37;16.83;;;11.07;;
52158;SDS011;38145;53.182;6.284;2023-04-15T02:48:08;17.98;;;11.52;;
52158;SDS011;38145;53.182;6.284;2023-04-15T02:50:35;18.77;;;12.03;;
52158;SDS011;38145;53.182;6.284;2023-04-15T02:53:03;23.15;;;12.93;;
52158;SDS011;38145;53.182;6.284;2023-04-15T02:55:36;18.92;;;12.75;;
52158;SDS011;38145;53.182;6.284;2023-04-15T02:58:03;22.55;;;13.60;;
52158;SDS011;38145;53.182;6.284;2023-04-15T03:00:29;26.92;;;15.95;;
52158;SDS011;38145;53.182;6.284;2023-04-15T03:03:02;18.65;;;13.25;;
52158;SDS011;38145;53.182;6.284;2023-04-15T03:07:59;20.98;;;12.68;;
52158;SDS011;38145;53.182;6.284;2023-04-15T03:10:27;20.48;;;13.57;;
52158;SDS011;38145;53.182;6.284;2023-04-15T03:12:55;23.17;;;12.38;;
52158;SDS011;38145;53.182;6.284;2023-04-15T03:15:22;20.50;;;13.13;;
52158;SDS011;38145;53.182;6.284;2023-04-15T03:17:50;19.50;;;13.52;;
52158;SDS011;38145;53.182;6.284;2023-04-15T03:20:19;19.63;;;13.13;;
52158;SDS011;38145;53.182;6.284;2023-04-15T03:22:45;22.13;;;14.75;;
52158;SDS011;38145;53.182;6.284;2023-04-15T03:25:12;20.70;;;12.70;;
52158;SDS011;38145;53.182;6.284;2023-04-15T03:27:40;20.95;;;14.00;;
52158;SDS011;38145;53.182;6.284;2023-04-15T03:30:09;17.80;;;13.63;;
52158;SDS011;38145;53.182;6.284;2023-04-15T03:32:35;18.83;;;13.88;;
52158;SDS011;38145;53.182;6.284;2023-04-15T03:35:02;21.48;;;14.23;;
52158;SDS011;38145;53.182;6.284;2023-04-15T03:37:29;21.02;;;12.90;;
52158;SDS011;38145;53.182;6.284;2023-04-15T03:39:55;20.67;;;14.02;;
52158;SDS011;38145;53.182;6.284;2023-04-15T03:42:21;25.52;;;14.20;;
52158;SDS011;38145;53.182;6.284;2023-04-15T03:44:48;21.48;;;14.85;;
52158;SDS011;38145;53.182;6.284;2023-04-15T03:47:19;23.23;;;14.27;;
52158;SDS011;38145;53.182;6.284;2023-04-15T03:49:48;20.00;;;14.10;;
52158;SDS011;38145;53.182;6.284;2023-04-15T03:52:14;21.67;;;14.23;;
52158;SDS011;38145;53.182;6.284;2023-04-15T03:54:42;23.13;;;13.85;;
52158;SDS011;38145;53.182;6.284;2023-04-15T03:57:09;19.15;;;12.55;;
52158;SDS011;38145;53.182;6.284;2023-04-15T03:59:39;17.48;;;12.57;;
52158;SDS011;38145;53.182;6.284;2023-04-15T04:02:09;17.38;;;12.63;;
52158;SDS011;38145;53.182;6.284;2023-04-15T04:04:37;18.52;;;11.98;;
52158;SDS011;38145;53.182;6.284;2023-04-15T04:07:05;18.55;;;12.95;;
52158;SDS011;38145;53.182;6.284;2023-04-15T04:09:40;17.00;;;11.55;;
52158;SDS011;38145;53.182;6.284;2023-04-15T04:12:06;14.75;;;11.38;;
52158;SDS011;38145;53.182;6.284;2023-04-15T04:14:36;19.67;;;13.05;;
52158;SDS011;38145;53.182;6.284;2023-04-15T04:17:04;17.92;;;11.60;;
52158;SDS011;38145;53.182;6.284;2023-04-15T04:19:31;14.38;;;10.60;;
52158;SDS011;38145;53.182;6.284;2023-04-15T04:22:00;16.08;;;10.50;;
52158;SDS011;38145;53.182;6.284;2023-04-15T04:24:27;14.50;;;10.68;;
52158;SDS011;38145;53.182;6.284;2023-04-15T04:26:54;18.48;;;10.95;;
52158;SDS011;38145;53.182;6.284;2023-04-15T04:29:22;17.70;;;11.68;;
52158;SDS011;38145;53.182;6.284;2023-04-15T04:31:48;16.63;;;11.35;;
52158;SDS011;38145;53.182;6.284;2023-04-15T04:34:15;17.55;;;11.15;;
52158;SDS011;38145;53.182;6.284;2023-04-15T04:36:42;16.85;;;11.45;;
52158;SDS011;38145;53.182;6.284;2023-04-15T04:39:10;19.95;;;12.93;;
52158;SDS011;38145;53.182;6.284;2023-04-15T04:41:36;23.55;;;15.15;;
52158;SDS011;38145;53.182;6.284;2023-04-15T04:44:03;21.83;;;15.18;;
52158;SDS011;38145;53.182;6.284;2023-04-15T04:46:31;21.15;;;14.98;;
52158;SDS011;38145;53.182;6.284;2023-04-15T04:49:01;18.52;;;12.85;;
52158;SDS011;38145;53.182;6.284;2023-04-15T04:51:28;23.05;;;15.35;;
52158;SDS011;38145;53.182;6.284;2023-04-15T04:53:55;19.65;;;13.68;;
52158;SDS011;38145;53.182;6.284;2023-04-15T04:56:22;18.42;;;12.32;;
52158;SDS011;38145;53.182;6.284;2023-04-15T04:58:50;18.55;;;13.48;;
52158;SDS011;38145;53.182;6.284;2023-04-15T05:01:18;20.50;;;13.02;;
52158;SDS011;38145;53.182;6.284;2023-04-15T05:03:48;21.02;;;12.80;;
52158;SDS011;38145;53.182;6.284;2023-04-15T05:06:15;20.38;;;13.95;;
52158;SDS011;38145;53.182;6.284;2023-04-15T05:08:45;21.80;;;15.27;;
52158;SDS011;38145;53.182;6.284;2023-04-15T05:11:11;25.60;;;16.92;;
52158;SDS011;38145;53.182;6.284;2023-04-15T05:13:37;24.25;;;16.00;;
52158;SDS011;38145;53.182;6.284;2023-04-15T05:16:03;23.35;;;16.27;;
52158;SDS011;38145;53.182;6.284;2023-04-15T05:18:30;22.33;;;15.83;;
52158;SDS011;38145;53.182;6.284;2023-04-15T05:20:57;27.00;;;16.80;;
52158;SDS011;38145;53.182;6.284;2023-04-15T05:23:23;27.67;;;16.52;;
52158;SDS011;38145;53.182;6.284;2023-04-15T05:25:49;24.52;;;15.90;;
52158;SDS011;38145;53.182;6.284;2023-04-15T05:28:15;23.65;;;15.82;;
52158;SDS011;38145;53.182;6.284;2023-04-15T05:30:41;25.80;;;17.42;;
52158;SDS011;38145;53.182;6.284;2023-04-15T05:33:07;21.00;;;15.18;;
52158;SDS011;38145;53.182;6.284;2023-04-15T05:35:33;21.73;;;16.00;;
52158;SDS011;38145;53.182;6.284;2023-04-15T05:38:02;22.02;;;15.25;;
52158;SDS011;38145;53.182;6.284;2023-04-15T05:40:30;20.45;;;14.52;;
52158;SDS011;38145;53.182;6.284;2023-04-15T05:43:01;23.50;;;15.30;;
52158;SDS011;38145;53.182;6.284;2023-04-15T05:45:28;27.13;;;15.68;;
52158;SDS011;38145;53.182;6.284;2023-04-15T05:47:54;24.03;;;15.13;;
52158;SDS011;38145;53.182;6.284;2023-04-15T05:50:25;20.45;;;15.45;;
52158;SDS011;38145;53.182;6.284;2023-04-15T05:52:53;24.70;;;14.63;;
52158;SDS011;38145;53.182;6.284;2023-04-15T05:57:49;23.23;;;14.18;;
52158;SDS011;38145;53.182;6.284;2023-04-15T06:00:16;20.67;;;14.75;;
52158;SDS011;38145;53.182;6.284;2023-04-15T06:02:45;20.50;;;14.25;;
52158;SDS011;38145;53.182;6.284;2023-04-15T06:05:11;22.75;;;14.93;;
52158;SDS011;38145;53.182;6.284;2023-04-15T06:07:39;20.10;;;14.13;;
52158;SDS011;38145;53.182;6.284;2023-04-15T06:10:09;17.42;;;13.00;;
52158;SDS011;38145;53.182;6.284;2023-04-15T06:12:35;17.90;;;13.68;;
52158;SDS011;38145;53.182;6.284;2023-04-15T06:15:01;20.65;;;15.02;;
52158;SDS011;38145;53.182;6.284;2023-04-15T06:17:29;21.00;;;14.85;;
52158;SDS011;38145;53.182;6.284;2023-04-15T06:19:56;22.13;;;14.13;;
52158;SDS011;38145;53.182;6.284;2023-04-15T06:22:24;20.45;;;15.13;;
52158;SDS011;38145;53.182;6.284;2023-04-15T06:24:50;20.50;;;14.05;;
52158;SDS011;38145;53.182;6.284;2023-04-15T06:27:18;19.70;;;13.88;;
52158;SDS011;38145;53.182;6.284;2023-04-15T06:29:45;24.40;;;15.32;;
52158;SDS011;38145;53.182;6.284;2023-04-15T06:32:11;20.17;;;14.43;;
52158;SDS011;38145;53.182;6.284;2023-04-15T06:34:37;22.95;;;14.73;;
52158;SDS011;38145;53.182;6.284;2023-04-15T06:37:06;24.52;;;14.57;;
52158;SDS011;38145;53.182;6.284;2023-04-15T06:39:36;24.05;;;15.20;;
52158;SDS011;38145;53.182;6.284;2023-04-15T06:42:02;23.30;;;15.57;;
52158;SDS011;38145;53.182;6.284;2023-04-15T06:44:29;24.45;;;15.48;;
52158;SDS011;38145;53.182;6.284;2023-04-15T06:46:55;22.17;;;14.85;;
52158;SDS011;38145;53.182;6.284;2023-04-15T06:49:21;22.23;;;15.60;;
52158;SDS011;38145;53.182;6.284;2023-04-15T06:51:48;25.35;;;15.88;;
52158;SDS011;38145;53.182;6.284;2023-04-15T06:54:15;23.55;;;16.33;;
52158;SDS011;38145;53.182;6.284;2023-04-15T06:56:43;26.75;;;15.75;;
52158;SDS011;38145;53.182;6.284;2023-04-15T06:59:12;26.85;;;15.93;;
52158;SDS011;38145;53.182;6.284;2023-04-15T07:01:39;23.52;;;15.63;;
52158;SDS011;38145;53.182;6.284;2023-04-15T07:04:06;23.40;;;16.27;;
52158;SDS011;38145;53.182;6.284;2023-04-15T07:06:31;24.15;;;15.82;;
52158;SDS011;38145;53.182;6.284;2023-04-15T07:09:00;23.58;;;15.65;;
52158;SDS011;38145;53.182;6.284;2023-04-15T07:11:27;18.50;;;13.82;;
52158;SDS011;38145;53.182;6.284;2023-04-15T07:13:54;19.15;;;13.75;;
52158;SDS011;38145;53.182;6.284;2023-04-15T07:16:20;17.20;;;11.93;;
52158;SDS011;38145;53.182;6.284;2023-04-15T07:18:47;22.13;;;13.27;;
52158;SDS011;38145;53.182;6.284;2023-04-15T07:21:15;17.25;;;12.40;;
52158;SDS011;38145;53.182;6.284;2023-04-15T07:26:10;12.93;;;9.27;;
52158;SDS011;38145;53.182;6.284;2023-04-15T07:28:38;13.35;;;9.65;;
52158;SDS011;38145;53.182;6.284;2023-04-15T07:31:04;15.68;;;9.73;;
52158;SDS011;38145;53.182;6.284;2023-04-15T07:33:31;12.90;;;9.65;;
52158;SDS011;38145;53.182;6.284;2023-04-15T07:35:58;10.85;;;8.18;;
52158;SDS011;38145;53.182;6.284;2023-04-15T07:40:51;13.18;;;8.82;;
52158;SDS011;38145;53.182;6.284;2023-04-15T07:43:18;13.05;;;9.35;;
52158;SDS011;38145;53.182;6.284;2023-04-15T07:48:11;13.18;;;8.68;;
52158;SDS011;38145;53.182;6.284;2023-04-15T07:50:41;14.23;;;8.90;;
52158;SDS011;38145;53.182;6.284;2023-04-15T07:53:10;10.63;;;8.60;;
52158;SDS011;38145;53.182;6.284;2023-04-15T07:58:16;12.50;;;7.78;;
52158;SDS011;38145;53.182;6.284;2023-04-15T08:00:42;13.45;;;8.40;;
52158;SDS011;38145;53.182;6.284;2023-04-15T08:05:40;15.80;;;7.57;;
52158;SDS011;38145;53.182;6.284;2023-04-15T08:08:06;10.40;;;7.27;;
52158;SDS011;38145;53.182;6.284;2023-04-15T08:10:33;10.98;;;7.40;;
52158;SDS011;38145;53.182;6.284;2023-04-15T08:13:00;8.77;;;7.13;;
52158;SDS011;38145;53.182;6.284;2023-04-15T08:15:26;11.23;;;7.43;;
52158;SDS011;38145;53.182;6.284;2023-04-15T08:17:54;10.30;;;7.40;;
52158;SDS011;38145;53.182;6.284;2023-04-15T08:20:21;10.65;;;8.05;;
52158;SDS011;38145;53.182;6.284;2023-04-15T08:22:47;11.82;;;7.25;;
52158;SDS011;38145;53.182;6.284;2023-04-15T08:25:17;11.10;;;7.15;;
52158;SDS011;38145;53.182;6.284;2023-04-15T08:27:45;12.63;;;7.15;;
52158;SDS011;38145;53.182;6.284;2023-04-15T08:30:12;14.13;;;6.95;;
52158;SDS011;38145;53.182;6.284;2023-04-15T08:32:41;19.92;;;7.88;;
52158;SDS011;38145;53.182;6.284;2023-04-15T08:35:11;11.88;;;6.85;;
52158;SDS011;38145;53.182;6.284;2023-04-15T08:37:39;9.23;;;6.55;;
52158;SDS011;38145;53.182;6.284;2023-04-15T08:40:05;9.65;;;6.63;;
52158;SDS011;38145;53.182;6.284;2023-04-15T08:42:36;10.02;;;6.57;;
52158;SDS011;38145;53.182;6.284;2023-04-15T08:45:07;12.65;;;6.82;;
52158;SDS011;38145;53.182;6.284;2023-04-15T08:47:39;9.07;;;5.90;;
52158;SDS011;38145;53.182;6.284;2023-04-15T08:50:09;14.52;;;6.70;;
52158;SDS011;38145;53.182;6.284;2023-04-15T08:52:37;13.40;;;6.43;;
52158;SDS011;38145;53.182;6.284;2023-04-15T08:55:04;10.17;;;5.67;;
52158;SDS011;38145;53.182;6.284;2023-04-15T08:57:34;9.32;;;6.07;;
52158;SDS011;38145;53.182;6.284;2023-04-15T09:00:05;11.80;;;6.80;;
52158;SDS011;38145;53.182;6.284;2023-04-15T09:02:31;12.27;;;6.13;;
52158;SDS011;38145;53.182;6.284;2023-04-15T09:04:59;8.52;;;5.22;;
52158;SDS011;38145;53.182;6.284;2023-04-15T09:07:33;7.07;;;5.28;;
52158;SDS011;38145;53.182;6.284;2023-04-15T09:10:02;7.85;;;4.97;;
52158;SDS011;38145;53.182;6.284;2023-04-15T09:12:29;7.82;;;5.07;;
52158;SDS011;38145;53.182;6.284;2023-04-15T09:14:55;6.22;;;5.47;;
52158;SDS011;38145;53.182;6.284;2023-04-15T09:17:24;7.45;;;4.43;;
52158;SDS011;38145;53.182;6.284;2023-04-15T09:20:06;7.00;;;4.20;;
52158;SDS011;38145;53.182;6.284;2023-04-15T09:22:37;7.10;;;4.00;;
52158;SDS011;38145;53.182;6.284;2023-04-15T09:27:48;6.50;;;4.45;;
52158;SDS011;38145;53.182;6.284;2023-04-15T09:30:16;8.55;;;4.32;;
52158;SDS011;38145;53.182;6.284;2023-04-15T09:32:50;5.30;;;3.88;;
52158;SDS011;38145;53.182;6.284;2023-04-15T09:35:24;5.88;;;3.15;;
52158;SDS011;38145;53.182;6.284;2023-04-15T09:38:00;3.10;;;2.42;;
52158;SDS011;38145;53.182;6.284;2023-04-15T09:40:34;7.22;;;2.15;;
52158;SDS011;38145;53.182;6.284;2023-04-15T09:43:01;5.68;;;2.17;;
52158;SDS011;38145;53.182;6.284;2023-04-15T09:45:30;5.10;;;1.90;;
52158;SDS011;38145;53.182;6.284;2023-04-15T09:48:14;3.95;;;2.28;;
52158;SDS011;38145;53.182;6.284;2023-04-15T09:50:46;6.57;;;2.10;;
52158;SDS011;38145;53.182;6.284;2023-04-15T09:53:19;6.38;;;2.78;;
52158;SDS011;38145;53.182;6.284;2023-04-15T09:55:50;4.20;;;2.33;;
52158;SDS011;38145;53.182;6.284;2023-04-15T09:58:20;2.97;;;2.65;;
52158;SDS011;38145;53.182;6.284;2023-04-15T10:00:49;4.20;;;1.95;;
52158;SDS011;38145;53.182;6.284;2023-04-15T10:03:22;4.55;;;2.17;;
52158;SDS011;38145;53.182;6.284;2023-04-15T10:05:55;2.40;;;2.00;;
52158;SDS011;38145;53.182;6.284;2023-04-15T10:08:25;7.13;;;2.40;;
52158;SDS011;38145;53.182;6.284;2023-04-15T10:10:54;4.07;;;2.35;;
52158;SDS011;38145;53.182;6.284;2023-04-15T10:13:25;3.17;;;2.22;;
52158;SDS011;38145;53.182;6.284;2023-04-15T10:16:02;4.43;;;2.45;;
52158;SDS011;38145;53.182;6.284;2023-04-15T10:18:36;3.67;;;2.40;;
52158;SDS011;38145;53.182;6.284;2023-04-15T10:21:05;4.60;;;2.08;;
52158;SDS011;38145;53.182;6.284;2023-04-15T10:23:33;4.47;;;2.20;;
52158;SDS011;38145;53.182;6.284;2023-04-15T10:26:00;4.50;;;2.10;;
52158;SDS011;38145;53.182;6.284;2023-04-15T10:28:30;5.30;;;2.78;;
52158;SDS011;38145;53.182;6.284;2023-04-15T10:33:24;3.10;;;1.90;;
52158;SDS011;38145;53.182;6.284;2023-04-15T10:35:54;2.90;;;1.80;;
52158;SDS011;38145;53.182;6.284;2023-04-15T10:38:30;3.15;;;1.90;;
52158;SDS011;38145;53.182;6.284;2023-04-15T10:41:17;3.55;;;2.55;;
52158;SDS011;38145;53.182;6.284;2023-04-15T10:43:48;3.90;;;2.13;;
52158;SDS011;38145;53.182;6.284;2023-04-15T10:46:22;4.95;;;2.25;;
52158;SDS011;38145;53.182;6.284;2023-04-15T10:49:11;4.65;;;2.40;;
52158;SDS011;38145;53.182;6.284;2023-04-15T10:51:54;6.65;;;2.53;;
52158;SDS011;38145;53.182;6.284;2023-04-15T10:56:50;4.47;;;2.10;;
52158;SDS011;38145;53.182;6.284;2023-04-15T10:59:36;4.70;;;2.80;;
52158;SDS011;38145;53.182;6.284;2023-04-15T11:02:37;7.85;;;2.38;;
52158;SDS011;38145;53.182;6.284;2023-04-15T11:05:10;5.57;;;2.53;;
52158;SDS011;38145;53.182;6.284;2023-04-15T11:12:59;6.68;;;2.72;;
52158;SDS011;38145;53.182;6.284;2023-04-15T11:15:34;12.63;;;3.55;;
52158;SDS011;38145;53.182;6.284;2023-04-15T11:18:08;7.60;;;2.80;;
52158;SDS011;38145;53.182;6.284;2023-04-15T11:20:38;6.82;;;2.60;;
52158;SDS011;38145;53.182;6.284;2023-04-15T11:23:08;5.18;;;2.85;;
52158;SDS011;38145;53.182;6.284;2023-04-15T11:25:36;8.60;;;3.08;;
52158;SDS011;38145;53.182;6.284;2023-04-15T11:28:03;8.43;;;2.67;;
52158;SDS011;38145;53.182;6.284;2023-04-15T11:30:33;7.45;;;2.67;;
52158;SDS011;38145;53.182;6.284;2023-04-15T11:33:01;6.90;;;2.83;;
52158;SDS011;38145;53.182;6.284;2023-04-15T11:35:33;6.90;;;3.05;;
52158;SDS011;38145;53.182;6.284;2023-04-15T11:38:04;6.27;;;3.80;;
52158;SDS011;38145;53.182;6.284;2023-04-15T11:40:35;8.85;;;2.92;;
52158;SDS011;38145;53.182;6.284;2023-04-15T11:43:03;7.90;;;2.80;;
52158;SDS011;38145;53.182;6.284;2023-04-15T11:45:35;7.07;;;3.38;;
52158;SDS011;38145;53.182;6.284;2023-04-15T11:48:10;7.60;;;3.38;;
52158;SDS011;38145;53.182;6.284;2023-04-15T11:50:39;11.00;;;3.22;;
52158;SDS011;38145;53.182;6.284;2023-04-15T11:53:07;6.55;;;2.25;;
52158;SDS011;38145;53.182;6.284;2023-04-15T11:55:45;10.88;;;2.28;;
52158;SDS011;38145;53.182;6.284;2023-04-15T11:58:17;7.55;;;2.78;;
52158;SDS011;38145;53.182;6.284;2023-04-15T12:00:45;5.95;;;1.95;;
52158;SDS011;38145;53.182;6.284;2023-04-15T12:03:19;11.80;;;3.85;;
52158;SDS011;38145;53.182;6.284;2023-04-15T12:08:47;11.68;;;2.72;;
52158;SDS011;38145;53.182;6.284;2023-04-15T12:11:14;11.60;;;3.10;;
52158;SDS011;38145;53.182;6.284;2023-04-15T12:13:46;8.18;;;2.65;;
52158;SDS011;38145;53.182;6.284;2023-04-15T12:16:18;9.32;;;2.95;;
52158;SDS011;38145;53.182;6.284;2023-04-15T12:18:45;7.78;;;2.08;;
52158;SDS011;38145;53.182;6.284;2023-04-15T12:21:12;11.50;;;2.35;;
52158;SDS011;38145;53.182;6.284;2023-04-15T12:23:46;8.80;;;2.40;;
52158;SDS011;38145;53.182;6.284;2023-04-15T12:26:27;11.20;;;2.45;;
52158;SDS011;38145;53.182;6.284;2023-04-15T12:29:11;12.10;;;2.60;;
52158;SDS011;38145;53.182;6.284;2023-04-15T12:31:50;13.00;;;2.45;;
52158;SDS011;38145;53.182;6.284;2023-04-15T12:34:25;6.75;;;1.70;;
52158;SDS011;38145;53.182;6.284;2023-04-15T12:36:56;14.52;;;3.13;;
52158;SDS011;38145;53.182;6.284;2023-04-15T12:39:24;10.13;;;2.47;;
52158;SDS011;38145;53.182;6.284;2023-04-15T12:41:52;10.60;;;2.28;;
52158;SDS011;38145;53.182;6.284;2023-04-15T12:44:25;8.60;;;2.15;;
52158;SDS011;38145;53.182;6.284;2023-04-15T12:46:52;10.95;;;1.95;;
52158;SDS011;38145;53.182;6.284;2023-04-15T12:49:29;13.05;;;2.85;;
52158;SDS011;38145;53.182;6.284;2023-04-15T12:51:59;9.70;;;2.55;;
52158;SDS011;38145;53.182;6.284;2023-04-15T12:54:27;17.77;;;2.80;;
52158;SDS011;38145;53.182;6.284;2023-04-15T12:56:55;12.35;;;2.05;;
52158;SDS011;38145;53.182;6.284;2023-04-15T12:59:23;9.50;;;2.78;;
52158;SDS011;38145;53.182;6.284;2023-04-15T13:01:50;5.65;;;2.10;;
52158;SDS011;38145;53.182;6.284;2023-04-15T13:04:19;6.85;;;1.90;;
52158;SDS011;38145;53.182;6.284;2023-04-15T13:06:47;15.95;;;2.30;;
52158;SDS011;38145;53.182;6.284;2023-04-15T13:09:14;11.02;;;2.55;;
52158;SDS011;38145;53.182;6.284;2023-04-15T13:11:40;12.48;;;2.63;;
52158;SDS011;38145;53.182;6.284;2023-04-15T13:14:07;12.68;;;1.83;;
52158;SDS011;38145;53.182;6.284;2023-04-15T13:16:35;13.10;;;2.42;;
52158;SDS011;38145;53.182;6.284;2023-04-15T13:19:04;13.02;;;3.08;;
52158;SDS011;38145;53.182;6.284;2023-04-15T13:21:34;6.53;;;1.70;;
52158;SDS011;38145;53.182;6.284;2023-04-15T13:24:03;15.98;;;2.42;;
52158;SDS011;38145;53.182;6.284;2023-04-15T13:28:58;8.90;;;1.60;;
52158;SDS011;38145;53.182;6.284;2023-04-15T13:31:25;12.18;;;2.00;;
52158;SDS011;38145;53.182;6.284;2023-04-15T13:33:52;11.23;;;2.58;;
52158;SDS011;38145;53.182;6.284;2023-04-15T13:38:48;8.85;;;2.42;;
52158;SDS011;38145;53.182;6.284;2023-04-15T13:41:15;12.77;;;2.15;;
52158;SDS011;38145;53.182;6.284;2023-04-15T13:43:41;9.15;;;2.30;;
52158;SDS011;38145;53.182;6.284;2023-04-15T13:46:14;12.82;;;2.28;;
52158;SDS011;38145;53.182;6.284;2023-04-15T13:48:42;19.33;;;2.67;;
52158;SDS011;38145;53.182;6.284;2023-04-15T13:51:10;9.85;;;2.90;;
52158;SDS011;38145;53.182;6.284;2023-04-15T13:53:40;13.35;;;2.65;;
52158;SDS011;38145;53.182;6.284;2023-04-15T13:56:08;16.35;;;2.65;;
52158;SDS011;38145;53.182;6.284;2023-04-15T13:58:35;16.20;;;2.55;;
52158;SDS011;38145;53.182;6.284;2023-04-15T14:01:04;6.82;;;2.17;;
52158;SDS011;38145;53.182;6.284;2023-04-15T14:03:32;11.77;;;3.05;;
52158;SDS011;38145;53.182;6.284;2023-04-15T14:06:00;7.47;;;2.00;;
52158;SDS011;38145;53.182;6.284;2023-04-15T14:08:32;13.65;;;1.83;;
52158;SDS011;38145;53.182;6.284;2023-04-15T14:11:00;11.57;;;2.97;;
52158;SDS011;38145;53.182;6.284;2023-04-15T14:13:28;12.65;;;3.13;;
52158;SDS011;38145;53.182;6.284;2023-04-15T14:15:55;8.98;;;2.25;;
52158;SDS011;38145;53.182;6.284;2023-04-15T14:18:22;12.60;;;2.60;;
52158;SDS011;38145;53.182;6.284;2023-04-15T14:20:48;11.45;;;2.85;;
52158;SDS011;38145;53.182;6.284;2023-04-15T14:23:16;8.63;;;2.20;;
52158;SDS011;38145;53.182;6.284;2023-04-15T14:25:44;11.63;;;2.33;;
52158;SDS011;38145;53.182;6.284;2023-04-15T14:28:13;10.88;;;2.72;;
52158;SDS011;38145;53.182;6.284;2023-04-15T14:30:40;13.77;;;3.65;;
52158;SDS011;38145;53.182;6.284;2023-04-15T14:33:07;16.13;;;3.08;;
52158;SDS011;38145;53.182;6.284;2023-04-15T14:35:33;13.40;;;2.28;;
52158;SDS011;38145;53.182;6.284;2023-04-15T14:38:07;17.20;;;3.35;;
52158;SDS011;38145;53.182;6.284;2023-04-15T14:40:39;10.27;;;2.33;;
52158;SDS011;38145;53.182;6.284;2023-04-15T14:43:07;9.43;;;2.35;;
52158;SDS011;38145;53.182;6.284;2023-04-15T14:45:33;11.93;;;3.20;;
52158;SDS011;38145;53.182;6.284;2023-04-15T14:48:00;15.35;;;2.75;;
52158;SDS011;38145;53.182;6.284;2023-04-15T14:50:31;16.77;;;3.17;;
52158;SDS011;38145;53.182;6.284;2023-04-15T14:52:57;12.55;;;2.90;;
52158;SDS011;38145;53.182;6.284;2023-04-15T14:55:24;16.08;;;3.70;;
52158;SDS011;38145;53.182;6.284;2023-04-15T14:57:50;12.93;;;2.60;;
52158;SDS011;38145;53.182;6.284;2023-04-15T15:00:22;10.02;;;3.17;;
52158;SDS011;38145;53.182;6.284;2023-04-15T15:02:49;15.02;;;3.58;;
52158;SDS011;38145;53.182;6.284;2023-04-15T15:05:15;15.05;;;3.67;;
52158;SDS011;38145;53.182;6.284;2023-04-15T15:07:42;13.82;;;3.65;;
52158;SDS011;38145;53.182;6.284;2023-04-15T15:10:09;13.23;;;3.58;;
52158;SDS011;38145;53.182;6.284;2023-04-15T15:12:35;13.73;;;4.57;;
52158;SDS011;38145;53.182;6.284;2023-04-15T15:15:02;10.82;;;3.53;;
52158;SDS011;38145;53.182;6.284;2023-04-15T15:17:29;14.10;;;3.38;;
52158;SDS011;38145;53.182;6.284;2023-04-15T15:19:56;11.20;;;4.50;;